Hovedside
METAR-TAF:

METAR-TAF

Lufthavner :

Reykjavík lufthavn

Reykjavík, Island

breddegrad: 64-08N, lengdegrad: 021-54W, høyde over havet: 54 m

Gjeldene værobservasjon

Denne rapporten ble laget for 36 minutter siden, klokken 15:00 UTC
Vind 23 kt fra Nord med vindkast opp mot 33 kt
Temperatur 6°C
Luftfuktighet 56%
Trykk 1003 hPa
Sikt 10 km eller mer
Få skyer i en høyde av 2300 ft

METAR: BIRK 201500Z 01023G33KT 9999 FEW023 06/M02 Q1003

Tid: 15:36 (15:36 UTC)

Varsel

Denne rapporten ble laget for 1 time og 37 minutter siden, klokken 13:59 UTC
Varsel gyldig fra 20. klokken 15 UTC til 21. klokken 15 UTC
Vind 22 kt fra Nord med vindkast opp mot 32 kt
Sikt 10 km eller mer
Få skyer i en høyde av 3000 ft
Blir
fra 20. klokken 21 UTC til 20. klokken 24 UTC
Vind 16 kt fra Nord

TAF: BIRK 201359Z 2015/2115 01022G32KT 9999 FEW030 TX06/2115Z TN02/2106Z BECMG 2021/2024 36016KT

Værobservasjoner og værvarsel for over 4000 flyplasser (METAR- og TAF-rapporter).

Tilgjengelige stasjoner er representert av de røde og gule prikkene på kartet.

Hold musepekeren over prikken for å se navnet på stasjonen.

Klikk så for å se værobservasjoner og -varsler.

For å forandre kartet kan du klikke på den grønne knappen med svart kryss for å zoome inn, på den grønne knappen med strek for å zoome ut, eller på de grønne pilene for å se tilstøtende kart.


METAR-TAF: